createdAt,value
2019-03-13T00:00:28.419Z,0.00
2019-03-13T00:01:28.349Z,0.00
2019-03-13T00:02:28.302Z,0.00
2019-03-13T00:03:28.295Z,0.00
2019-03-13T00:04:28.271Z,0.00
2019-03-13T00:05:28.277Z,0.00
2019-03-13T00:06:28.262Z,0.00
2019-03-13T00:07:28.268Z,0.00
2019-03-13T00:08:28.242Z,0.00
2019-03-13T00:09:28.218Z,0.00
2019-03-13T00:10:28.204Z,0.00
2019-03-13T00:11:28.200Z,0.00
2019-03-13T00:12:28.187Z,0.00
2019-03-13T00:13:28.176Z,0.00
2019-03-13T00:14:28.171Z,0.00
2019-03-13T00:15:28.154Z,0.00
2019-03-13T00:16:28.148Z,0.00
2019-03-13T00:17:28.132Z,0.00
2019-03-13T00:18:28.138Z,0.00
2019-03-13T00:19:28.118Z,0.00
2019-03-13T00:20:28.102Z,0.00
2019-03-13T00:21:28.090Z,0.00
2019-03-13T00:22:28.078Z,0.00
2019-03-13T00:23:28.066Z,0.00
2019-03-13T00:24:28.061Z,0.00
2019-03-13T00:25:28.054Z,0.00
2019-03-13T00:26:28.031Z,0.00
2019-03-13T00:27:28.032Z,0.00
2019-03-13T00:28:28.036Z,0.00
2019-03-13T00:29:28.008Z,0.00
2019-03-13T00:30:27.994Z,0.00
2019-03-13T00:31:27.989Z,0.00
2019-03-13T00:32:27.975Z,0.00
2019-03-13T00:33:27.962Z,0.00
2019-03-13T00:34:27.954Z,0.00
2019-03-13T00:35:27.954Z,0.00
2019-03-13T00:36:27.931Z,0.00
2019-03-13T00:37:27.925Z,0.00
2019-03-13T00:38:27.905Z,0.00
2019-03-13T00:39:27.895Z,0.00
2019-03-13T00:40:27.888Z,0.00
2019-03-13T00:41:27.892Z,0.00
2019-03-13T00:42:27.870Z,0.00
2019-03-13T00:43:27.854Z,0.00
2019-03-13T00:44:27.854Z,0.00
2019-03-13T00:45:27.838Z,0.00
2019-03-13T00:46:27.820Z,0.00
2019-03-13T00:47:27.810Z,0.00
2019-03-13T00:48:27.810Z,0.00
2019-03-13T00:49:27.795Z,0.00
2019-03-13T00:50:27.778Z,0.00
2019-03-13T00:51:27.765Z,0.00
2019-03-13T00:52:27.767Z,0.00
2019-03-13T00:53:27.754Z,0.00
2019-03-13T00:54:27.740Z,0.00
2019-03-13T00:55:27.720Z,0.00
2019-03-13T00:56:27.711Z,0.00
2019-03-13T00:57:27.699Z,0.00
2019-03-13T00:58:27.687Z,0.00
2019-03-13T00:59:27.677Z,0.00
2019-03-13T01:00:27.670Z,0.00
2019-03-13T01:01:27.663Z,0.00
2019-03-13T01:02:27.645Z,0.00
2019-03-13T01:03:27.637Z,0.00
2019-03-13T01:04:27.623Z,0.00
2019-03-13T01:05:27.622Z,0.00
2019-03-13T01:06:27.606Z,0.00
2019-03-13T01:07:27.601Z,0.00
2019-03-13T01:08:27.581Z,0.00
2019-03-13T01:09:27.581Z,0.00
2019-03-13T01:10:27.565Z,0.00
2019-03-13T01:11:27.609Z,0.00
2019-03-13T01:12:27.541Z,0.00
2019-03-13T01:13:27.530Z,0.00
2019-03-13T01:14:27.520Z,0.00
2019-03-13T01:15:27.507Z,0.00
2019-03-13T01:16:27.504Z,0.00
2019-03-13T01:17:27.497Z,0.00
2019-03-13T01:18:27.483Z,0.00
2019-03-13T01:19:27.467Z,0.00
2019-03-13T01:20:27.452Z,0.00
2019-03-13T01:21:27.446Z,0.00
2019-03-13T01:22:27.436Z,0.00
2019-03-13T01:23:27.419Z,0.00
2019-03-13T01:24:27.413Z,0.00
2019-03-13T01:25:27.397Z,0.00
2019-03-13T01:26:27.403Z,0.00
2019-03-13T01:27:27.383Z,0.00
2019-03-13T01:28:27.375Z,0.00
2019-03-13T01:29:27.361Z,0.00
2019-03-13T01:30:27.352Z,0.00
2019-03-13T01:31:27.341Z,0.00
2019-03-13T01:32:27.329Z,0.00
2019-03-13T01:33:27.321Z,0.00
2019-03-13T01:34:27.316Z,0.00
2019-03-13T01:35:27.327Z,0.00
2019-03-13T01:36:27.281Z,0.00
2019-03-13T01:37:27.272Z,0.00
2019-03-13T01:38:27.262Z,0.00
2019-03-13T01:39:27.254Z,0.00
2019-03-13T01:40:27.247Z,0.00
2019-03-13T01:41:27.234Z,0.00
2019-03-13T01:42:27.216Z,0.00
2019-03-13T01:43:27.213Z,0.00
2019-03-13T01:44:27.198Z,0.00
2019-03-13T01:45:27.189Z,0.00
2019-03-13T01:46:27.177Z,0.00
2019-03-13T01:47:27.161Z,0.00
2019-03-13T01:48:27.159Z,0.00
2019-03-13T01:49:27.138Z,0.00
2019-03-13T01:50:27.136Z,0.00
2019-03-13T01:51:27.120Z,0.00
2019-03-13T01:52:27.114Z,0.00
2019-03-13T01:53:27.135Z,0.00
2019-03-13T01:54:27.086Z,0.00
2019-03-13T01:55:27.077Z,0.00
2019-03-13T01:56:27.068Z,0.00
2019-03-13T01:57:27.062Z,0.00
2019-03-13T01:58:27.057Z,0.00
2019-03-13T01:59:27.039Z,0.00
2019-03-13T02:00:27.035Z,0.00
2019-03-13T02:01:27.016Z,0.00
2019-03-13T02:02:27.009Z,0.00
2019-03-13T02:03:27.022Z,0.00
2019-03-13T02:04:26.981Z,0.00
2019-03-13T02:05:26.970Z,0.00
2019-03-13T02:06:26.963Z,0.00
2019-03-13T02:07:26.956Z,0.00
2019-03-13T02:08:26.951Z,0.00
2019-03-13T02:09:26.933Z,0.00
2019-03-13T02:10:26.916Z,0.00
2019-03-13T02:11:26.915Z,0.00
2019-03-13T02:12:26.901Z,0.00
2019-03-13T02:13:26.898Z,0.00
2019-03-13T02:14:26.876Z,0.00
2019-03-13T02:15:26.862Z,0.00
2019-03-13T02:16:26.854Z,0.00
2019-03-13T02:17:26.848Z,0.00
2019-03-13T02:18:26.836Z,0.00
2019-03-13T02:19:26.841Z,0.00
2019-03-13T02:20:26.813Z,0.00
2019-03-13T02:21:26.805Z,0.00
2019-03-13T02:22:26.789Z,0.00
2019-03-13T02:23:26.780Z,0.00
2019-03-13T02:24:26.772Z,0.00
2019-03-13T02:25:26.767Z,0.00
2019-03-13T02:26:26.750Z,0.00
2019-03-13T02:27:26.737Z,0.00
2019-03-13T02:28:26.727Z,0.00
2019-03-13T02:29:26.717Z,0.00
2019-03-13T02:30:26.713Z,0.00
2019-03-13T02:31:26.697Z,0.00
2019-03-13T02:32:26.680Z,0.00
2019-03-13T02:33:26.770Z,0.00
2019-03-13T02:34:26.683Z,0.00
2019-03-13T02:35:26.655Z,0.00
2019-03-13T02:36:26.769Z,0.00
2019-03-13T02:37:26.636Z,0.00
2019-03-13T02:38:26.616Z,0.00
2019-03-13T02:39:26.623Z,0.00
2019-03-13T02:40:26.617Z,0.00
2019-03-13T02:41:26.599Z,0.00
2019-03-13T02:42:26.705Z,0.00
2019-03-13T02:43:26.569Z,0.00
2019-03-13T02:44:26.579Z,0.00
2019-03-13T02:45:26.555Z,0.00
2019-03-13T02:46:26.538Z,0.00
2019-03-13T02:47:26.536Z,0.00
2019-03-13T02:48:26.532Z,0.00
2019-03-13T02:49:26.508Z,0.00
2019-03-13T02:50:26.497Z,0.00
2019-03-13T02:51:26.499Z,0.00
2019-03-13T02:52:26.477Z,0.00
2019-03-13T02:53:26.468Z,0.00
2019-03-13T02:54:26.461Z,0.00
2019-03-13T02:55:26.438Z,0.00
2019-03-13T02:56:26.450Z,0.00
2019-03-13T02:57:26.426Z,0.00
2019-03-13T02:58:26.451Z,0.00
2019-03-13T02:59:26.408Z,0.00
2019-03-13T03:00:26.384Z,0.00
2019-03-13T03:01:26.383Z,0.00
2019-03-13T03:02:26.385Z,0.00
2019-03-13T03:03:26.370Z,0.00
2019-03-13T03:04:26.352Z,0.00
2019-03-13T03:05:26.341Z,0.00
2019-03-13T03:06:26.323Z,0.00
2019-03-13T03:07:26.317Z,0.00
2019-03-13T03:08:26.310Z,0.00
2019-03-13T03:09:26.311Z,0.00
2019-03-13T03:10:26.291Z,0.00
2019-03-13T03:11:26.266Z,0.00
2019-03-13T03:12:26.255Z,0.00
2019-03-13T03:13:26.252Z,0.00
2019-03-13T03:14:26.239Z,0.00
2019-03-13T03:15:26.232Z,0.00
2019-03-13T03:16:26.227Z,0.00
2019-03-13T03:17:26.242Z,0.00
2019-03-13T03:18:26.219Z,0.00
2019-03-13T03:19:26.188Z,0.00
2019-03-13T03:20:26.186Z,0.00
2019-03-13T03:21:26.177Z,0.00
2019-03-13T03:22:26.162Z,0.00
2019-03-13T03:23:26.147Z,0.00
2019-03-13T03:24:26.183Z,0.00
2019-03-13T03:25:26.146Z,0.00
2019-03-13T03:26:26.116Z,0.00
2019-03-13T03:27:26.111Z,0.00
2019-03-13T03:28:26.087Z,0.00
2019-03-13T03:29:26.082Z,0.00
2019-03-13T03:30:26.086Z,0.00
2019-03-13T03:31:26.060Z,0.00
2019-03-13T03:32:26.050Z,0.00
2019-03-13T03:33:26.038Z,0.00
2019-03-13T03:34:26.075Z,0.00
2019-03-13T03:35:26.017Z,0.00
2019-03-13T03:36:26.008Z,0.00
2019-03-13T03:37:26.003Z,0.00
2019-03-13T03:38:25.994Z,0.00
2019-03-13T03:39:25.993Z,0.00
2019-03-13T03:40:25.970Z,0.00
2019-03-13T03:41:25.957Z,0.00
2019-03-13T03:42:25.943Z,0.00
2019-03-13T03:43:39.203Z,0.00
2019-03-13T03:44:26.922Z,0.00
2019-03-13T03:45:25.923Z,0.00
2019-03-13T03:46:25.901Z,0.00
2019-03-13T03:47:25.889Z,0.00
2019-03-13T03:48:25.894Z,0.00
2019-03-13T03:49:25.870Z,0.00
2019-03-13T03:50:25.870Z,0.00
2019-03-13T03:51:25.852Z,0.00
2019-03-13T03:52:25.838Z,0.00
2019-03-13T03:53:25.825Z,0.00
2019-03-13T03:54:25.817Z,0.00
2019-03-13T03:55:25.817Z,0.00
2019-03-13T03:56:25.799Z,0.00
2019-03-13T03:57:25.785Z,0.00
2019-03-13T03:58:29.192Z,0.00
2019-03-13T03:59:25.766Z,0.00
2019-03-13T04:00:25.768Z,0.00
2019-03-13T04:01:25.749Z,0.00
2019-03-13T04:02:25.741Z,0.00
2019-03-13T04:03:25.729Z,0.00
2019-03-13T04:04:25.739Z,0.00
2019-03-13T04:05:25.709Z,0.00
2019-03-13T04:06:25.693Z,0.00
2019-03-13T04:07:25.681Z,0.00
2019-03-13T04:08:25.674Z,0.00
2019-03-13T04:09:25.658Z,0.00
2019-03-13T04:10:25.646Z,0.00
2019-03-13T04:11:25.637Z,0.00
2019-03-13T04:12:25.629Z,0.00
2019-03-13T04:13:25.619Z,0.00
2019-03-13T04:14:25.645Z,0.00
2019-03-13T04:15:25.595Z,0.00
2019-03-13T04:16:25.589Z,0.00
2019-03-13T04:17:25.577Z,0.00
2019-03-13T04:18:25.561Z,0.00
2019-03-13T04:19:25.566Z,0.00
2019-03-13T04:20:25.540Z,0.00
2019-03-13T04:21:25.670Z,0.00
2019-03-13T04:22:25.529Z,0.00
2019-03-13T04:23:25.514Z,0.00
2019-03-13T04:24:25.525Z,0.00
2019-03-13T04:25:25.493Z,0.00
2019-03-13T04:26:25.477Z,0.00
2019-03-13T04:27:25.467Z,0.00
2019-03-13T04:28:25.455Z,0.00
2019-03-13T04:29:25.452Z,0.00
2019-03-13T04:30:25.445Z,0.00
2019-03-13T04:31:25.424Z,0.00
2019-03-13T04:32:25.404Z,0.00
2019-03-13T04:33:28.035Z,0.00
2019-03-13T04:34:25.385Z,0.00
2019-03-13T04:35:25.379Z,0.00
2019-03-13T04:36:25.382Z,0.00
2019-03-13T04:37:25.378Z,0.00
2019-03-13T04:38:25.342Z,0.00
2019-03-13T04:39:25.339Z,0.00
2019-03-13T04:40:25.331Z,0.00
2019-03-13T04:41:25.315Z,0.00
2019-03-13T04:42:25.309Z,0.00
2019-03-13T04:43:25.291Z,0.00
2019-03-13T04:44:25.277Z,0.00
2019-03-13T04:45:25.275Z,0.00
2019-03-13T04:46:25.269Z,0.00
2019-03-13T04:47:25.320Z,0.00
2019-03-13T04:48:25.240Z,0.00
2019-03-13T04:49:25.228Z,0.00
2019-03-13T04:50:25.217Z,0.00
2019-03-13T04:51:25.209Z,0.00
2019-03-13T04:52:25.201Z,0.00
2019-03-13T04:53:25.199Z,0.00
2019-03-13T04:54:25.174Z,0.00
2019-03-13T04:55:25.161Z,0.00
2019-03-13T04:56:25.149Z,0.00
2019-03-13T04:57:25.157Z,0.00
2019-03-13T04:58:25.140Z,0.00
2019-03-13T04:59:25.134Z,0.00
2019-03-13T05:00:25.130Z,0.00
2019-03-13T05:01:26.338Z,0.00
2019-03-13T05:02:25.085Z,0.00
2019-03-13T05:03:25.081Z,4.00
2019-03-13T05:04:25.134Z,4.00
2019-03-13T05:05:25.063Z,4.00
2019-03-13T05:06:25.051Z,8.00
2019-03-13T05:07:25.035Z,8.00
2019-03-13T05:08:25.028Z,12.00
2019-03-13T05:09:25.014Z,16.00
2019-03-13T05:10:25.007Z,16.00
2019-03-13T05:11:24.995Z,20.00
2019-03-13T05:12:24.981Z,20.00
2019-03-13T05:13:24.971Z,24.00
2019-03-13T05:14:24.971Z,32.00
2019-03-13T05:15:24.948Z,32.00
2019-03-13T05:16:24.947Z,40.00
2019-03-13T05:17:24.929Z,44.00
2019-03-13T05:18:24.924Z,52.00
2019-03-13T05:19:24.906Z,56.00
2019-03-13T05:20:24.897Z,64.00
2019-03-13T05:21:24.894Z,72.00
2019-03-13T05:22:24.881Z,84.00
2019-03-13T05:23:24.870Z,96.00
2019-03-13T05:24:24.859Z,108.00
2019-03-13T05:25:24.841Z,120.00
2019-03-13T05:26:24.833Z,136.00
2019-03-13T05:27:24.821Z,136.00
2019-03-13T05:28:24.811Z,140.00
2019-03-13T05:29:24.797Z,140.00
2019-03-13T05:30:24.788Z,136.00
2019-03-13T05:31:24.783Z,140.00
2019-03-13T05:32:24.769Z,144.00
2019-03-13T05:33:24.765Z,160.00
2019-03-13T05:34:24.749Z,164.00
2019-03-13T05:35:24.733Z,192.00
2019-03-13T05:36:24.726Z,244.00
2019-03-13T05:37:24.717Z,280.00
2019-03-13T05:38:24.711Z,312.00
2019-03-13T05:39:24.700Z,336.00
2019-03-13T05:40:24.683Z,336.00
2019-03-13T05:41:24.670Z,320.00
2019-03-13T05:42:24.660Z,312.00
2019-03-13T05:43:24.666Z,340.00
2019-03-13T05:44:24.649Z,404.00
2019-03-13T05:45:24.626Z,472.00
2019-03-13T05:46:24.627Z,540.00
2019-03-13T05:47:24.605Z,592.00
2019-03-13T05:48:24.597Z,636.00
2019-03-13T05:49:24.581Z,680.00
2019-03-13T05:50:24.579Z,724.00
2019-03-13T05:51:24.564Z,780.00
2019-03-13T05:52:24.551Z,844.00
2019-03-13T05:53:24.545Z,896.00
2019-03-13T05:54:24.532Z,940.00
2019-03-13T05:55:24.604Z,996.00
2019-03-13T05:56:24.507Z,1040.00
2019-03-13T05:57:24.501Z,1096.00
2019-03-13T05:58:24.483Z,1168.00
2019-03-13T05:59:24.496Z,1316.00
2019-03-13T06:00:24.472Z,1508.00
2019-03-13T06:01:24.455Z,1568.00
2019-03-13T06:02:24.440Z,1568.00
2019-03-13T06:03:24.436Z,1660.00
2019-03-13T06:04:24.423Z,1652.00
2019-03-13T06:05:24.438Z,1556.00
2019-03-13T06:06:24.408Z,1792.00
2019-03-13T06:07:24.394Z,1932.00
2019-03-13T06:08:24.379Z,1560.00
2019-03-13T06:09:25.632Z,1364.00
2019-03-13T06:10:24.362Z,1512.00
2019-03-13T06:11:24.347Z,1848.00
2019-03-13T06:12:24.341Z,2260.00
2019-03-13T06:13:24.322Z,2412.00
2019-03-13T06:14:24.321Z,2176.00
2019-03-13T06:15:24.301Z,1884.00
2019-03-13T06:16:24.297Z,1540.00
2019-03-13T06:17:24.279Z,1320.00
2019-03-13T06:18:24.275Z,1164.00
2019-03-13T06:19:24.264Z,1080.00
2019-03-13T06:20:24.249Z,1036.00
2019-03-13T06:21:24.235Z,1004.00
2019-03-13T06:22:24.247Z,936.00
2019-03-13T06:23:24.219Z,896.00
2019-03-13T06:24:24.220Z,984.00
2019-03-13T06:25:24.193Z,1060.00
2019-03-13T06:26:24.195Z,1088.00
2019-03-13T06:27:24.192Z,1052.00
2019-03-13T06:28:24.174Z,1096.00
2019-03-13T06:29:24.159Z,1004.00
2019-03-13T06:30:24.138Z,812.00
2019-03-13T06:31:24.141Z,804.00
2019-03-13T06:32:24.117Z,816.00
2019-03-13T06:33:24.106Z,740.00
2019-03-13T06:34:24.093Z,704.00
2019-03-13T06:35:24.227Z,744.00
2019-03-13T06:36:24.093Z,768.00
2019-03-13T06:37:24.065Z,812.00
2019-03-13T06:38:24.057Z,852.00
2019-03-13T06:39:24.057Z,876.00
2019-03-13T06:40:24.037Z,948.00
2019-03-13T06:41:24.037Z,976.00
2019-03-13T06:42:24.008Z,1056.00
2019-03-13T06:43:24.007Z,1144.00
2019-03-13T06:44:23.993Z,1292.00
2019-03-13T06:45:23.997Z,2080.00
2019-03-13T06:46:23.979Z,3036.00
2019-03-13T06:47:25.189Z,3364.00
2019-03-13T06:48:23.953Z,3792.00
2019-03-13T06:49:23.939Z,4708.00
2019-03-13T06:50:23.930Z,3072.00
2019-03-13T06:51:23.925Z,2744.00
2019-03-13T06:52:23.903Z,2624.00
2019-03-13T06:53:23.893Z,2384.00
2019-03-13T06:54:23.883Z,2552.00
2019-03-13T06:55:23.869Z,2460.00
2019-03-13T06:56:23.873Z,2268.00
2019-03-13T06:57:23.851Z,2588.00
2019-03-13T06:58:23.851Z,3900.00
2019-03-13T06:59:23.826Z,3864.00
2019-03-13T07:00:23.815Z,4072.00
2019-03-13T07:01:23.809Z,4468.00
2019-03-13T07:02:23.799Z,6672.00
2019-03-13T07:03:23.795Z,8560.00
2019-03-13T07:04:23.793Z,8912.00
2019-03-13T07:05:23.767Z,7804.00
2019-03-13T07:06:23.755Z,6092.00
2019-03-13T07:07:23.746Z,7316.00
2019-03-13T07:08:23.761Z,7260.00
2019-03-13T07:09:23.723Z,7176.00
2019-03-13T07:10:23.710Z,7256.00
2019-03-13T07:11:23.753Z,8632.00
2019-03-13T07:12:23.693Z,9840.00
2019-03-13T07:13:23.689Z,8428.00
2019-03-13T07:14:23.673Z,7500.00
2019-03-13T07:15:23.665Z,6596.00
2019-03-13T07:16:23.648Z,8068.00
2019-03-13T07:17:23.633Z,11120.00
2019-03-13T07:18:23.621Z,9540.00
2019-03-13T07:19:23.615Z,8304.00
2019-03-13T07:20:23.655Z,6740.00
2019-03-13T07:21:23.776Z,6040.00
2019-03-13T07:22:23.596Z,7412.00
2019-03-13T07:23:23.571Z,8804.00
2019-03-13T07:24:23.557Z,11320.00
2019-03-13T07:25:23.564Z,12180.00
2019-03-13T07:26:23.551Z,11088.00
2019-03-13T07:27:23.531Z,9836.00
2019-03-13T07:28:23.510Z,10596.00
2019-03-13T07:29:23.503Z,11124.00
2019-03-13T07:30:23.505Z,12072.00
2019-03-13T07:31:23.487Z,11084.00
2019-03-13T07:32:23.481Z,10316.00
2019-03-13T07:33:23.463Z,8540.00
2019-03-13T07:34:23.447Z,9344.00
2019-03-13T07:35:23.446Z,12312.00
2019-03-13T07:36:23.427Z,10492.00
2019-03-13T07:37:23.426Z,11408.00
2019-03-13T07:38:23.412Z,10952.00
2019-03-13T07:39:23.404Z,10024.00
2019-03-13T07:40:23.389Z,14616.00
2019-03-13T07:41:23.384Z,12496.00
2019-03-13T07:42:23.365Z,13376.00
2019-03-13T07:43:23.355Z,12600.00
2019-03-13T07:44:23.351Z,10384.00
2019-03-13T07:45:23.330Z,7524.00
2019-03-13T07:46:23.318Z,7484.00
2019-03-13T07:47:23.307Z,7756.00
2019-03-13T07:48:23.303Z,8028.00
2019-03-13T07:49:23.299Z,9380.00
2019-03-13T07:50:23.281Z,11464.00
2019-03-13T07:51:23.265Z,12340.00
2019-03-13T07:52:23.261Z,17248.00
2019-03-13T07:53:23.262Z,11852.00
2019-03-13T07:54:23.237Z,71104.00
2019-03-13T07:55:23.223Z,91488.00
2019-03-13T07:56:23.215Z,94016.00
2019-03-13T07:57:23.204Z,79232.00
2019-03-13T07:58:23.201Z,76800.00
2019-03-13T07:59:23.181Z,56928.00
2019-03-13T08:00:23.173Z,48960.00
2019-03-13T08:01:23.161Z,97472.00
2019-03-13T08:02:23.170Z,96960.00
2019-03-13T08:03:23.143Z,94720.00
2019-03-13T08:04:23.134Z,94464.00
2019-03-13T08:05:23.123Z,96352.00
2019-03-13T08:06:23.111Z,92544.00
2019-03-13T08:07:23.129Z,95584.00
2019-03-13T08:08:23.086Z,96576.00
2019-03-13T08:09:23.071Z,95168.00
2019-03-13T08:10:23.066Z,61984.00
2019-03-13T08:11:23.066Z,37088.00
2019-03-13T08:12:23.039Z,21216.00
2019-03-13T08:13:23.039Z,66144.00
2019-03-13T08:14:23.023Z,87072.00
2019-03-13T08:15:23.009Z,91264.00
2019-03-13T08:16:23.004Z,97280.00
2019-03-13T08:17:22.993Z,28480.00
2019-03-13T08:18:22.980Z,51520.00
2019-03-13T08:19:24.241Z,83136.00
2019-03-13T08:20:22.972Z,23936.00
2019-03-13T08:21:22.953Z,100192.00
2019-03-13T08:22:22.936Z,84128.00
2019-03-13T08:23:22.925Z,85152.00
2019-03-13T08:24:22.913Z,66112.00
2019-03-13T08:25:22.903Z,38400.00
2019-03-13T08:26:22.894Z,48320.00
2019-03-13T08:27:22.880Z,23776.00
2019-03-13T08:28:22.877Z,24288.00
2019-03-13T08:29:22.862Z,51840.00
2019-03-13T08:30:22.859Z,41696.00
2019-03-13T08:31:22.839Z,52256.00
2019-03-13T08:32:22.827Z,18208.00
2019-03-13T08:33:22.815Z,44864.00
2019-03-13T08:34:22.821Z,59136.00
2019-03-13T08:35:22.798Z,62752.00
2019-03-13T08:36:22.789Z,44736.00
2019-03-13T08:37:22.776Z,32128.00
2019-03-13T08:38:22.772Z,18112.00
2019-03-13T08:39:22.761Z,22144.00
2019-03-13T08:40:22.751Z,21952.00
2019-03-13T08:41:22.735Z,19968.00
2019-03-13T08:42:22.719Z,22688.00
2019-03-13T08:43:22.716Z,36000.00
2019-03-13T08:44:22.703Z,27488.00
2019-03-13T08:45:22.696Z,71040.00
2019-03-13T08:46:22.683Z,80448.00
2019-03-13T08:47:22.673Z,23424.00
2019-03-13T08:48:22.687Z,81504.00
2019-03-13T08:49:22.649Z,52576.00
2019-03-13T08:50:22.636Z,62496.00
2019-03-13T08:51:22.635Z,25696.00
2019-03-13T08:52:22.617Z,19808.00
2019-03-13T08:53:22.601Z,24832.00
2019-03-13T08:54:22.599Z,57312.00
2019-03-13T08:55:22.591Z,52896.00
2019-03-13T08:56:22.581Z,104896.00
2019-03-13T08:57:22.569Z,38816.00
2019-03-13T08:58:22.546Z,21856.00
2019-03-13T08:59:23.705Z,24640.00
2019-03-13T09:00:22.533Z,23648.00
2019-03-13T09:01:22.529Z,55552.00
2019-03-13T09:02:22.526Z,113088.00
2019-03-13T09:03:22.501Z,62944.00
2019-03-13T09:04:22.482Z,91744.00
2019-03-13T09:05:22.479Z,56672.00
2019-03-13T09:06:22.479Z,38080.00
2019-03-13T09:07:22.453Z,93600.00
2019-03-13T09:08:22.452Z,121216.00
2019-03-13T09:09:22.438Z,69952.00
2019-03-13T09:10:22.846Z,38944.00
2019-03-13T09:11:22.412Z,43488.00
2019-03-13T09:12:22.397Z,37632.00
2019-03-13T09:13:22.392Z,25760.00
2019-03-13T09:14:22.388Z,35680.00
2019-03-13T09:15:22.368Z,21504.00
2019-03-13T09:16:22.359Z,90816.00
2019-03-13T09:17:22.356Z,113056.00
2019-03-13T09:18:22.347Z,113088.00
2019-03-13T09:19:22.335Z,85504.00
2019-03-13T09:20:22.330Z,37280.00
2019-03-13T09:21:22.309Z,63200.00
2019-03-13T09:22:22.295Z,58176.00
2019-03-13T09:23:22.288Z,54240.00
2019-03-13T09:24:22.279Z,28960.00
2019-03-13T09:25:22.273Z,54944.00
2019-03-13T09:26:22.253Z,104128.00
2019-03-13T09:27:22.246Z,39136.00
2019-03-13T09:28:22.235Z,41984.00
2019-03-13T09:29:22.322Z,53664.00
2019-03-13T09:30:22.209Z,23040.00
2019-03-13T09:31:25.335Z,75552.00
2019-03-13T09:32:22.194Z,25440.00
2019-03-13T09:33:22.178Z,17056.00
2019-03-13T09:34:22.165Z,104576.00
2019-03-13T09:35:22.165Z,116768.00
2019-03-13T09:36:22.146Z,111904.00
2019-03-13T09:37:22.143Z,102592.00
2019-03-13T09:38:22.130Z,113216.00
2019-03-13T09:39:22.111Z,112384.00
2019-03-13T09:40:22.102Z,113120.00
2019-03-13T09:41:22.090Z,112160.00
2019-03-13T09:42:22.099Z,47040.00
2019-03-13T09:43:22.096Z,40352.00
2019-03-13T09:44:22.058Z,19552.00
2019-03-13T09:45:22.055Z,27072.00
2019-03-13T09:46:22.039Z,14192.00
2019-03-13T09:47:22.033Z,47776.00
2019-03-13T09:48:22.026Z,35328.00
2019-03-13T09:49:22.009Z,11756.00
2019-03-13T09:50:21.996Z,59488.00
2019-03-13T09:51:22.007Z,8900.00
2019-03-13T09:52:21.995Z,8336.00
2019-03-13T09:53:21.972Z,6572.00
2019-03-13T09:54:21.958Z,6580.00
2019-03-13T09:55:21.942Z,20384.00
2019-03-13T09:56:21.929Z,15004.00
2019-03-13T09:57:21.927Z,73056.00
2019-03-13T09:58:21.912Z,22336.00
2019-03-13T09:59:21.908Z,110176.00
2019-03-13T10:00:21.898Z,19968.00
2019-03-13T10:01:21.883Z,20896.00
2019-03-13T10:02:21.872Z,31424.00
2019-03-13T10:03:21.863Z,115520.00
2019-03-13T10:04:21.847Z,80224.00
2019-03-13T10:05:21.851Z,41504.00
2019-03-13T10:06:22.548Z,10288.00
2019-03-13T10:07:21.815Z,9312.00
2019-03-13T10:08:21.806Z,9128.00
2019-03-13T10:09:21.795Z,37792.00
2019-03-13T10:10:21.784Z,50816.00
2019-03-13T10:11:21.777Z,33824.00
2019-03-13T10:12:21.767Z,107552.00
2019-03-13T10:13:21.751Z,111968.00
2019-03-13T10:14:21.738Z,94656.00
2019-03-13T10:15:21.727Z,56000.00
2019-03-13T10:16:21.722Z,28832.00
2019-03-13T10:17:21.711Z,14132.00
2019-03-13T10:18:21.696Z,13780.00
2019-03-13T10:19:21.687Z,11092.00
2019-03-13T10:20:21.677Z,111616.00
2019-03-13T10:21:21.665Z,12188.00
2019-03-13T10:22:21.651Z,111648.00
2019-03-13T10:23:21.640Z,10968.00
2019-03-13T10:24:21.631Z,8144.00
2019-03-13T10:25:21.626Z,6716.00
2019-03-13T10:26:21.696Z,5936.00
2019-03-13T10:27:21.595Z,8864.00
2019-03-13T10:28:21.615Z,6504.00
2019-03-13T10:29:21.577Z,5320.00
2019-03-13T10:30:21.563Z,4932.00
2019-03-13T10:31:21.553Z,4696.00
2019-03-13T10:32:21.552Z,5464.00
2019-03-13T10:33:21.543Z,7972.00
2019-03-13T10:34:21.584Z,6228.00
2019-03-13T10:35:21.515Z,6288.00
2019-03-13T10:36:21.510Z,5948.00
2019-03-13T10:37:21.491Z,5736.00
2019-03-13T10:38:21.481Z,5380.00
2019-03-13T10:39:21.473Z,7180.00
2019-03-13T10:40:21.459Z,11752.00
2019-03-13T10:41:21.447Z,103712.00
2019-03-13T10:42:21.437Z,93216.00
2019-03-13T10:43:21.430Z,18880.00
2019-03-13T10:44:21.414Z,33760.00
2019-03-13T10:45:21.483Z,16704.00
2019-03-13T10:46:21.392Z,93952.00
2019-03-13T10:47:21.379Z,45888.00
2019-03-13T10:48:21.369Z,11976.00
2019-03-13T10:49:21.359Z,11628.00
2019-03-13T10:50:21.357Z,20608.00
2019-03-13T10:51:21.363Z,11500.00
2019-03-13T10:52:21.328Z,92224.00
2019-03-13T10:53:21.323Z,15304.00
2019-03-13T10:54:21.307Z,21664.00
2019-03-13T10:55:21.301Z,15448.00
2019-03-13T10:56:21.334Z,10236.00
2019-03-13T10:57:21.276Z,65216.00
2019-03-13T10:58:21.268Z,13424.00
2019-03-13T10:59:21.247Z,10972.00
2019-03-13T11:00:21.251Z,9072.00
2019-03-13T11:01:21.234Z,17984.00
2019-03-13T11:02:21.225Z,9696.00
2019-03-13T11:03:21.206Z,14972.00
2019-03-13T11:04:21.210Z,14264.00
2019-03-13T11:05:21.189Z,16128.00
2019-03-13T11:06:21.193Z,13624.00
2019-03-13T11:07:21.171Z,16896.00
2019-03-13T11:08:21.161Z,13220.00
2019-03-13T11:09:21.149Z,12256.00
2019-03-13T11:10:21.140Z,13692.00
2019-03-13T11:11:21.130Z,11428.00
2019-03-13T11:12:21.116Z,11024.00
2019-03-13T11:13:21.106Z,10932.00
2019-03-13T11:14:21.098Z,11300.00
2019-03-13T11:15:21.081Z,12456.00
2019-03-13T11:16:21.068Z,20992.00
2019-03-13T11:17:21.061Z,7888.00
2019-03-13T11:18:21.050Z,7556.00
2019-03-13T11:19:21.045Z,11892.00
2019-03-13T11:20:21.028Z,11272.00
2019-03-13T11:21:21.017Z,53056.00
2019-03-13T11:22:21.005Z,12584.00
2019-03-13T11:23:20.988Z,9412.00
2019-03-13T11:24:20.990Z,7580.00
2019-03-13T11:25:21.038Z,6524.00
2019-03-13T11:26:20.960Z,5276.00
2019-03-13T11:27:20.967Z,37856.00
2019-03-13T11:28:20.939Z,7904.00
2019-03-13T11:29:20.924Z,6316.00
2019-03-13T11:30:21.034Z,5860.00
2019-03-13T11:31:20.904Z,6040.00
2019-03-13T11:32:20.893Z,6128.00
2019-03-13T11:33:20.897Z,5964.00
2019-03-13T11:34:20.884Z,5436.00
2019-03-13T11:35:20.866Z,6876.00
2019-03-13T11:36:20.859Z,6112.00
2019-03-13T11:37:20.851Z,6004.00
2019-03-13T11:38:20.833Z,4916.00
2019-03-13T11:39:20.817Z,4800.00
2019-03-13T11:40:20.813Z,5152.00
2019-03-13T11:41:20.809Z,4244.00
2019-03-13T11:42:20.787Z,4316.00
2019-03-13T11:43:20.776Z,4716.00
2019-03-13T11:44:20.761Z,5060.00
2019-03-13T11:45:20.753Z,5240.00
2019-03-13T11:46:20.741Z,4700.00
2019-03-13T11:47:20.733Z,5168.00
2019-03-13T11:48:20.723Z,5944.00
2019-03-13T11:49:20.707Z,4904.00
2019-03-13T11:50:20.698Z,4200.00
2019-03-13T11:51:20.691Z,3804.00
2019-03-13T11:52:20.679Z,3688.00
2019-03-13T11:53:20.671Z,3972.00
2019-03-13T11:54:20.661Z,4244.00
2019-03-13T11:55:20.647Z,3772.00
2019-03-13T11:56:20.631Z,3360.00
2019-03-13T11:57:20.635Z,4108.00
2019-03-13T11:58:20.690Z,3312.00
2019-03-13T11:59:20.601Z,3084.00
2019-03-13T12:00:20.663Z,2792.00
2019-03-13T12:01:20.576Z,2780.00
2019-03-13T12:02:20.571Z,2508.00
2019-03-13T12:03:20.581Z,2344.00
2019-03-13T12:04:20.551Z,2168.00
2019-03-13T12:05:20.546Z,1872.00
2019-03-13T12:06:20.521Z,1812.00
2019-03-13T12:07:20.514Z,1816.00
2019-03-13T12:08:20.502Z,1980.00
2019-03-13T12:09:20.495Z,1884.00
2019-03-13T12:10:20.479Z,1876.00
2019-03-13T12:11:20.476Z,1972.00
2019-03-13T12:12:20.454Z,1984.00
2019-03-13T12:13:20.449Z,2080.00
2019-03-13T12:14:20.436Z,1980.00
2019-03-13T12:15:20.427Z,2040.00
2019-03-13T12:16:20.437Z,2144.00
2019-03-13T12:17:20.401Z,2020.00
2019-03-13T12:18:20.392Z,1732.00
2019-03-13T12:19:20.386Z,1660.00
2019-03-13T12:20:20.377Z,1720.00
2019-03-13T12:21:20.374Z,1788.00
2019-03-13T12:22:20.354Z,1884.00
2019-03-13T12:23:20.342Z,1912.00
2019-03-13T12:24:20.326Z,1960.00
2019-03-13T12:25:20.315Z,2028.00
2019-03-13T12:26:20.306Z,2352.00
2019-03-13T12:27:20.302Z,2748.00
2019-03-13T12:28:20.281Z,2972.00
2019-03-13T12:29:20.291Z,2880.00